KOUN

University of Oklahoma Westheimer Airport

Norman, Oklahoma, USA
METAR KOUN 280047Z 11011KT 10SM SCT250 30/21 A2982
Observed Flight Rules
May-28 @ 00:47 UTC (16 minutes ago) Visual Flight Rules
Wind Visibility Clouds
110° at 11 knots 10 miles
  • Scattered at 25,000' AGL
Temperatures Readings
Current 30°C / 86°F
Dewpoint 21°C / 70°F
Humidity 59%
Altimeter 29.82" Hg
Pressure 1010 hPa
Elevation 357
METAR KOUN 280047Z 11011KT 10SM SCT250 30/21 A2982
Observed Flight Rules
May-28 @ 00:47 UTC
(16 minutes ago)
VFR
Wind Visibility
110° at 11 knots 10 miles
Clouds
  • Scattered at 25,000' AGL
Temperature Dewpoint
30°C / 86°F 21°C / 70°F
Humidity Altimeter Pressure
59% 29.82" Hg 1010 hPa